Time;durP1;ratioP1;P1;durP2;ratioP2;P2;SDS_P1;SDS_P2;PMS_P1;PMS_P2;Temp;Humidity;BMP_temperature;BMP_pressure;BME280_temperature;BME280_humidity;BME280_pressure;Samples;Min_cycle;Max_cycle;Signal;HPM_P1;HPM_P2
2021/10/13 00:01:49;;;;;;;5.25;3.90;;;8.00;99.90;;;;;;5035785;28;20165;-65
2021/10/13 00:04:15;;;;;;;3.95;3.45;;;8.00;99.90;;;;;;5035552;28;20177;-65
2021/10/13 00:06:40;;;;;;;3.20;2.90;;;8.10;99.90;;;;;;5033878;28;20214;-65
2021/10/13 00:09:06;;;;;;;4.53;4.13;;;8.10;99.90;;;;;;5034977;28;20212;-64
2021/10/13 00:11:33;;;;;;;3.00;2.80;;;8.10;99.90;;;;;;5035304;28;20174;-64
2021/10/13 00:14:00;;;;;;;4.05;2.90;;;8.10;99.90;;;;;;5035515;28;20208;-65
2021/10/13 00:16:29;;;;;;;2.95;2.67;;;8.10;99.90;;;;;;5034041;28;20185;-64
2021/10/13 00:18:55;;;;;;;3.30;3.00;;;8.10;99.90;;;;;;5035256;28;20194;-64
2021/10/13 00:21:21;;;;;;;3.57;2.47;;;8.00;99.90;;;;;;5035379;28;20192;-65
2021/10/13 00:23:46;;;;;;;2.57;2.40;;;8.00;99.90;;;;;;5035098;28;20178;-64
2021/10/13 00:26:12;;;;;;;3.83;3.43;;;8.00;99.90;;;;;;5035307;28;20516;-64
2021/10/13 00:28:38;;;;;;;3.33;3.10;;;8.00;99.90;;;;;;5034765;28;20647;-64
2021/10/13 00:31:03;;;;;;;3.93;3.00;;;8.00;99.90;;;;;;5034098;28;20379;-65
2021/10/13 00:33:29;;;;;;;2.80;2.50;;;8.00;99.90;;;;;;5035105;28;20513;-64
2021/10/13 00:35:55;;;;;;;2.67;2.47;;;8.00;99.90;;;;;;5035076;28;20172;-64
2021/10/13 00:38:20;;;;;;;4.77;3.50;;;8.10;99.90;;;;;;5034336;28;20200;-64
2021/10/13 00:40:46;;;;;;;2.70;2.50;;;8.10;99.90;;;;;;5035080;28;20524;-65
2021/10/13 00:43:12;;;;;;;4.03;3.10;;;8.10;99.90;;;;;;5034767;28;20631;-64
2021/10/13 00:45:37;;;;;;;3.97;3.07;;;8.10;99.90;;;;;;5034535;28;20178;-64
2021/10/13 00:48:03;;;;;;;3.20;2.90;;;8.10;99.90;;;;;;5034151;28;20227;-65
2021/10/13 00:50:29;;;;;;;6.33;4.50;;;8.00;99.90;;;;;;5034456;28;20170;-64
2021/10/13 00:52:55;;;;;;;5.97;3.27;;;8.00;99.90;;;;;;5034711;28;20372;-65
2021/10/13 00:55:21;;;;;;;3.23;2.93;;;7.90;99.90;;;;;;5034579;28;20186;-65
2021/10/13 00:57:48;;;;;;;2.63;2.40;;;7.90;99.90;;;;;;5034116;28;20224;-65
2021/10/13 01:00:15;;;;;;;3.60;3.40;;;7.90;99.90;;;;;;5034262;28;20185;-64
2021/10/13 01:03:11;;;;;;;3.30;3.05;;;7.80;99.90;;;;;;5034303;28;20174;-65
2021/10/13 01:05:45;;;;;;;3.38;2.97;;;7.80;99.90;;;;;;5034387;28;20181;-66
2021/10/13 01:08:19;;;;;;;3.25;2.95;;;7.80;99.90;;;;;;5033744;28;20207;-64
2021/10/13 01:11:15;;;;;;;3.63;3.15;;;7.80;99.90;;;;;;5034310;28;20180;-64
2021/10/13 01:14:03;;;;;;;2.45;2.30;;;7.80;99.90;;;;;;5034679;28;20241;-64
2021/10/13 01:17:00;;;;;;;4.38;3.53;;;7.80;99.90;;;;;;5012044;28;20190;-64
2021/10/13 01:19:37;;;;;;;4.07;3.72;;;7.80;99.90;;;;;;5034253;28;20264;-66
2021/10/13 01:22:17;;;;;;;4.82;3.13;;;7.90;99.90;;;;;;5034267;28;20200;-64
2021/10/13 01:24:55;;;;;;;6.28;4.85;;;7.80;99.90;;;;;;5034094;28;20564;-64
2021/10/13 01:27:56;;;;;;;4.95;4.32;;;7.90;99.90;;;;;;5033521;28;20208;-65
2021/10/13 01:30:24;;;;;;;4.97;4.45;;;7.90;99.90;;;;;;5033701;28;20169;-65
2021/10/13 01:33:16;;;;;;;4.22;3.60;;;7.90;99.90;;;;;;5033803;28;20266;-64
2021/10/13 01:35:47;;;;;;;2.90;2.60;;;7.90;99.90;;;;;;5033968;28;20180;-64
2021/10/13 01:38:17;;;;;;;4.80;4.32;;;7.90;99.90;;;;;;5033436;28;20197;-65
2021/10/13 01:40:44;;;;;;;4.90;4.43;;;7.90;99.90;;;;;;5033999;28;20172;-65
2021/10/13 01:43:12;;;;;;;5.20;3.72;;;7.80;99.90;;;;;;5033334;28;20182;-64
2021/10/13 01:45:39;;;;;;;5.30;4.70;;;7.90;99.90;;;;;;5033839;28;20228;-63
2021/10/13 01:48:06;;;;;;;5.53;5.07;;;7.90;99.90;;;;;;5033091;28;20293;-64
2021/10/13 01:50:32;;;;;;;5.75;5.15;;;7.80;99.90;;;;;;5033693;28;20201;-64
2021/10/13 01:52:59;;;;;;;6.35;5.75;;;7.80;99.90;;;;;;5033562;28;20164;-64
2021/10/13 01:55:26;;;;;;;6.60;4.85;;;7.80;99.90;;;;;;5033454;28;20193;-64
2021/10/13 01:57:56;;;;;;;8.70;4.90;;;7.80;99.90;;;;;;5032829;28;20201;-64
2021/10/13 02:00:23;;;;;;;6.43;4.63;;;7.80;99.90;;;;;;5033573;28;20231;-63
2021/10/13 02:02:50;;;;;;;6.20;5.35;;;7.70;99.90;;;;;;5033583;28;20219;-63
2021/10/13 02:05:16;;;;;;;5.20;4.43;;;7.70;99.90;;;;;;5033562;28;20173;-64
2021/10/13 02:07:45;;;;;;;6.35;5.22;;;7.70;99.90;;;;;;5033108;28;20555;-63
2021/10/13 02:10:12;;;;;;;6.40;4.85;;;7.80;99.90;;;;;;5033393;28;20176;-64
2021/10/13 02:12:41;;;;;;;5.00;4.50;;;7.80;99.90;;;;;;5033013;28;20174;-66
2021/10/13 02:15:08;;;;;;;6.82;4.95;;;7.80;99.90;;;;;;5033423;28;20180;-64
2021/10/13 02:17:39;;;;;;;4.45;4.03;;;7.80;99.90;;;;;;5031571;28;20643;-64
2021/10/13 02:20:05;;;;;;;6.28;4.10;;;7.80;99.90;;;;;;5033422;28;20516;-63
2021/10/13 02:22:32;;;;;;;6.03;4.97;;;7.80;99.90;;;;;;5033141;28;20195;-64
2021/10/13 02:24:58;;;;;;;5.00;4.53;;;7.80;99.90;;;;;;5031808;28;20730;-63
2021/10/13 02:27:45;;;;;;;5.95;5.38;;;7.70;99.90;;;;;;5032108;28;21682;-64
2021/10/13 02:30:12;;;;;;;7.30;5.78;;;7.80;99.90;;;;;;5036511;28;20553;-63
2021/10/13 02:32:38;;;;;;;5.68;4.85;;;7.70;99.90;;;;;;5037456;28;20253;-64
2021/10/13 02:35:05;;;;;;;3.97;3.60;;;7.80;99.90;;;;;;5037391;28;20200;-63
2021/10/13 02:37:31;;;;;;;4.28;3.58;;;7.70;99.90;;;;;;5036749;28;20259;-63
2021/10/13 02:39:57;;;;;;;4.38;3.97;;;7.70;99.90;;;;;;5037313;28;20275;-65
2021/10/13 02:42:23;;;;;;;7.73;6.23;;;7.80;99.90;;;;;;5036807;28;20273;-64
2021/10/13 02:44:49;;;;;;;5.87;4.30;;;7.80;99.90;;;;;;5036908;28;20184;-64
2021/10/13 02:47:26;;;;;;;7.43;5.00;;;7.80;99.90;;;;;;5036825;28;20495;-63
2021/10/13 02:50:23;;;;;;;6.07;5.47;;;7.80;99.90;;;;;;5037089;28;20468;-63
2021/10/13 02:53:09;;;;;;;6.68;5.93;;;7.90;99.90;;;;;;5037039;28;20205;-64
2021/10/13 02:56:03;;;;;;;6.10;4.75;;;7.80;99.90;;;;;;5036751;28;20212;-65
2021/10/13 02:58:56;;;;;;;6.47;5.40;;;7.90;99.90;;;;;;5033912;28;20218;-64
2021/10/13 03:01:28;;;;;;;5.50;4.68;;;7.90;99.90;;;;;;5036767;28;20184;-65
2021/10/13 03:03:59;;;;;;;5.70;5.20;;;7.90;99.90;;;;;;5037180;28;20181;-65
2021/10/13 03:06:39;;;;;;;8.15;5.82;;;7.90;99.90;;;;;;5036608;28;20178;-65
2021/10/13 03:09:08;;;;;;;5.32;4.72;;;7.80;99.90;;;;;;5036668;28;20263;-65
2021/10/13 03:11:34;;;;;;;6.18;4.90;;;7.80;99.90;;;;;;5036224;28;20177;-65
2021/10/13 03:14:01;;;;;;;4.25;3.90;;;7.80;99.90;;;;;;5036283;28;20629;-66
2021/10/13 03:16:28;;;;;;;5.72;4.70;;;7.80;99.90;;;;;;5036237;28;20188;-64
2021/10/13 03:18:55;;;;;;;6.47;4.78;;;7.80;99.90;;;;;;5035957;28;20192;-63
2021/10/13 03:21:26;;;;;;;11.75;5.93;;;7.80;99.90;;;;;;5036375;28;20170;-64
2021/10/13 03:23:52;;;;;;;9.68;5.55;;;7.80;99.90;;;;;;5036280;28;20182;-64
2021/10/13 03:26:17;;;;;;;5.27;4.20;;;7.80;99.90;;;;;;5035886;28;20260;-64
2021/10/13 03:28:43;;;;;;;6.10;4.37;;;7.80;99.90;;;;;;5035652;28;20550;-65
2021/10/13 03:31:09;;;;;;;9.27;6.57;;;7.80;99.90;;;;;;5036361;28;20177;-64
2021/10/13 03:33:38;;;;;;;6.10;4.57;;;7.80;99.90;;;;;;5036282;28;20637;-64
2021/10/13 03:36:09;;;;;;;6.80;6.07;;;7.80;99.90;;;;;;5036168;28;20171;-65
2021/10/13 03:38:35;;;;;;;4.22;3.83;;;7.80;99.90;;;;;;5035759;28;20558;-64
2021/10/13 03:41:01;;;;;;;8.40;5.57;;;7.80;99.90;;;;;;5035559;28;20181;-64
2021/10/13 03:43:27;;;;;;;6.90;5.43;;;7.80;99.90;;;;;;5034636;28;20173;-65
2021/10/13 03:45:53;;;;;;;7.87;5.60;;;7.80;99.90;;;;;;5035898;28;20629;-65
2021/10/13 03:48:18;;;;;;;6.77;4.87;;;7.80;99.90;;;;;;5035494;28;20307;-64
2021/10/13 03:50:44;;;;;;;6.27;4.23;;;7.80;99.90;;;;;;5035939;28;20416;-65
2021/10/13 03:53:10;;;;;;;6.47;5.37;;;7.80;99.90;;;;;;5035979;28;20223;-64
2021/10/13 03:55:35;;;;;;;9.47;5.93;;;7.80;99.90;;;;;;5035153;28;20186;-65
2021/10/13 03:58:01;;;;;;;5.93;5.30;;;7.80;99.90;;;;;;5035334;28;20230;-64
2021/10/13 04:00:27;;;;;;;4.10;3.50;;;7.70;99.90;;;;;;5035619;28;20442;-64
2021/10/13 04:02:53;;;;;;;5.73;5.23;;;7.70;99.90;;;;;;5035729;28;20388;-64
2021/10/13 04:05:18;;;;;;;6.20;5.10;;;7.70;99.90;;;;;;5035488;28;20383;-65
2021/10/13 04:07:44;;;;;;;6.93;6.23;;;7.60;99.90;;;;;;5035030;28;20217;-64
2021/10/13 04:10:13;;;;;;;6.30;4.35;;;7.60;99.90;;;;;;5035458;28;20173;-64
2021/10/13 04:12:39;;;;;;;4.95;4.45;;;7.60;99.90;;;;;;5035394;28;20180;-64
2021/10/13 04:15:07;;;;;;;3.80;3.47;;;7.50;99.90;;;;;;5035295;28;20173;-65
2021/10/13 04:17:33;;;;;;;5.22;4.78;;;7.50;99.90;;;;;;5015861;28;20268;-64
2021/10/13 04:20:00;;;;;;;5.65;4.85;;;7.60;99.90;;;;;;5015379;28;20265;-63
2021/10/13 04:22:26;;;;;;;4.57;4.18;;;7.60;99.90;;;;;;5014415;28;20177;-65
2021/10/13 04:24:52;;;;;;;7.57;6.10;;;7.50;99.90;;;;;;5015649;28;20270;-63
2021/10/13 04:27:17;;;;;;;5.30;4.77;;;7.50;99.90;;;;;;5013636;28;20216;-64
2021/10/13 04:29:43;;;;;;;5.33;3.63;;;7.50;99.90;;;;;;5015384;28;20341;-63
2021/10/13 04:32:08;;;;;;;4.70;4.20;;;7.50;99.90;;;;;;5034463;28;20180;-64
2021/10/13 04:34:34;;;;;;;7.97;4.60;;;7.40;99.90;;;;;;5035313;28;20247;-64
2021/10/13 04:37:00;;;;;;;5.17;4.17;;;7.50;99.90;;;;;;5034623;28;20174;-62
2021/10/13 04:39:25;;;;;;;3.87;3.57;;;7.40;99.90;;;;;;5034378;28;20189;-64
2021/10/13 04:41:51;;;;;;;6.27;4.90;;;7.40;99.90;;;;;;5035261;28;20177;-65
2021/10/13 04:44:16;;;;;;;6.60;5.00;;;7.40;99.90;;;;;;5034858;28;20180;-64
2021/10/13 04:46:42;;;;;;;7.83;6.13;;;7.40;99.90;;;;;;5033633;28;20207;-66
2021/10/13 04:49:08;;;;;;;7.07;4.20;;;7.40;99.90;;;;;;5034685;28;20190;-65
2021/10/13 04:51:33;;;;;;;8.87;5.63;;;7.50;99.90;;;;;;5032909;28;20168;-64
2021/10/13 04:53:59;;;;;;;6.37;4.57;;;7.50;99.90;;;;;;5034607;28;20173;-65
2021/10/13 04:56:25;;;;;;;5.57;4.90;;;7.40;99.90;;;;;;5034398;28;20275;-65
2021/10/13 04:58:50;;;;;;;8.63;5.73;;;7.40;99.90;;;;;;5034207;28;20555;-65
2021/10/13 05:01:16;;;;;;;6.30;5.20;;;7.50;99.90;;;;;;5033995;28;20170;-65
2021/10/13 05:03:42;;;;;;;8.60;7.30;;;7.50;99.90;;;;;;5028537;28;20200;-65
2021/10/13 05:06:07;;;;;;;6.00;5.37;;;7.40;99.90;;;;;;5031133;28;20170;-64
2021/10/13 05:08:33;;;;;;;10.20;7.20;;;7.40;99.90;;;;;;5033745;28;20578;-64
2021/10/13 05:10:58;;;;;;;8.80;5.23;;;7.40;99.90;;;;;;5033920;28;20178;-64
2021/10/13 05:13:24;;;;;;;6.90;5.40;;;7.40;99.90;;;;;;5034087;28;20173;-66
2021/10/13 05:15:50;;;;;;;8.77;6.90;;;7.40;99.90;;;;;;5033936;28;20169;-65
2021/10/13 05:18:16;;;;;;;7.20;6.27;;;7.40;99.90;;;;;;5033938;28;20436;-65
2021/10/13 05:20:41;;;;;;;12.20;6.73;;;7.40;99.90;;;;;;5032740;28;20268;-67
2021/10/13 05:23:07;;;;;;;9.07;6.60;;;7.40;99.90;;;;;;5034580;28;20173;-66
2021/10/13 05:25:33;;;;;;;6.27;5.67;;;7.50;99.90;;;;;;5034236;28;20170;-66
2021/10/13 05:27:59;;;;;;;9.67;6.57;;;7.50;99.90;;;;;;5033672;28;20295;-67
2021/10/13 05:30:24;;;;;;;7.37;5.80;;;7.50;99.90;;;;;;5034251;28;20222;-65
2021/10/13 05:32:50;;;;;;;11.67;7.37;;;7.50;99.90;;;;;;5033636;28;20421;-65
2021/10/13 05:35:16;;;;;;;6.43;4.87;;;7.50;99.90;;;;;;5033697;28;20191;-65
2021/10/13 05:37:41;;;;;;;9.43;6.10;;;7.50;99.90;;;;;;5029432;28;20681;-66
2021/10/13 05:40:08;;;;;;;10.93;6.50;;;7.50;99.90;;;;;;5018855;28;20264;-64
2021/10/13 05:42:33;;;;;;;5.80;4.78;;;7.50;99.90;;;;;;5024608;28;20182;-66
2021/10/13 05:44:59;;;;;;;7.03;6.33;;;7.50;99.90;;;;;;5032783;28;20192;-65
2021/10/13 05:47:25;;;;;;;10.13;5.70;;;7.50;99.90;;;;;;5032920;28;20239;-65
2021/10/13 05:49:50;;;;;;;8.10;5.50;;;7.50;99.90;;;;;;5030145;28;20643;-65
2021/10/13 05:52:17;;;;;;;5.63;4.67;;;7.50;99.90;;;;;;5021604;28;20170;-66
2021/10/13 05:54:43;;;;;;;15.70;7.53;;;7.50;99.90;;;;;;5016372;28;20225;-65
2021/10/13 05:57:09;;;;;;;8.48;6.70;;;7.50;99.90;;;;;;5033121;28;20184;-66
2021/10/13 05:59:37;;;;;;;12.65;6.30;;;7.50;99.90;;;;;;5033348;28;20170;-66
2021/10/13 06:02:03;;;;;;;9.30;6.00;;;7.60;99.90;;;;;;5033361;28;20177;-65
2021/10/13 06:04:28;;;;;;;10.57;6.90;;;7.60;99.90;;;;;;5032458;28;20181;-66
2021/10/13 06:06:54;;;;;;;10.37;5.73;;;7.60;99.90;;;;;;5031961;28;20434;-65
2021/10/13 06:09:20;;;;;;;9.07;5.53;;;7.60;99.90;;;;;;5032478;28;20200;-67
2021/10/13 06:11:45;;;;;;;10.23;7.97;;;7.60;99.90;;;;;;5032559;28;20566;-66
2021/10/13 06:14:11;;;;;;;12.73;7.80;;;7.70;99.90;;;;;;5031168;28;20172;-66
2021/10/13 06:16:36;;;;;;;7.27;5.13;;;7.70;99.90;;;;;;5031399;28;20181;-67
2021/10/13 06:19:02;;;;;;;8.13;6.30;;;7.80;99.90;;;;;;5031272;28;20196;-64
2021/10/13 06:21:28;;;;;;;9.30;7.23;;;7.80;99.90;;;;;;5031393;28;20181;-67
2021/10/13 06:23:53;;;;;;;11.77;6.77;;;7.80;99.90;;;;;;5031108;28;20249;-66
2021/10/13 06:26:21;;;;;;;10.27;7.17;;;7.80;99.90;;;;;;5032445;28;20192;-65
2021/10/13 06:28:47;;;;;;;9.15;6.13;;;7.80;99.90;;;;;;5032222;28;20209;-66
2021/10/13 06:31:12;;;;;;;12.85;6.68;;;7.80;99.90;;;;;;5032781;28;20177;-65
2021/10/13 06:33:38;;;;;;;10.90;7.90;;;7.80;99.90;;;;;;5033337;28;20186;-65
2021/10/13 06:36:08;;;;;;;9.27;6.67;;;7.90;99.90;;;;;;5033268;28;20227;-67
2021/10/13 06:38:34;;;;;;;10.00;6.03;;;7.90;99.90;;;;;;5033067;28;20428;-67
2021/10/13 06:41:00;;;;;;;7.53;6.22;;;7.90;99.90;;;;;;5033922;28;20204;-66
2021/10/13 06:43:27;;;;;;;10.88;5.30;;;8.00;99.90;;;;;;5036112;28;20316;-66
2021/10/13 06:45:53;;;;;;;10.93;8.07;;;8.10;99.90;;;;;;5037831;28;20253;-67
2021/10/13 06:48:21;;;;;;;7.88;5.00;;;8.10;99.90;;;;;;5037381;28;20548;-66
2021/10/13 06:50:47;;;;;;;13.88;6.75;;;8.10;99.90;;;;;;5039925;28;20189;-65
2021/10/13 06:53:14;;;;;;;11.10;6.60;;;8.10;99.90;;;;;;5038608;28;20261;-68
2021/10/13 06:55:42;;;;;;;9.18;5.80;;;8.20;99.90;;;;;;5034957;28;20194;-66
2021/10/13 06:58:07;;;;;;;12.13;8.05;;;8.30;99.90;;;;;;5037042;28;20594;-67
2021/10/13 07:00:33;;;;;;;13.60;8.87;;;8.30;99.90;;;;;;5036984;28;20170;-67
2021/10/13 07:02:59;;;;;;;10.43;5.77;;;8.40;99.90;;;;;;5034461;28;20189;-67
2021/10/13 07:05:24;;;;;;;8.50;5.80;;;8.50;99.90;;;;;;5034862;28;20169;-66
2021/10/13 07:07:50;;;;;;;9.10;6.43;;;8.60;99.90;;;;;;5034940;28;20202;-67
2021/10/13 07:10:18;;;;;;;12.20;6.60;;;8.70;99.90;;;;;;5033681;28;20173;-66
2021/10/13 07:12:44;;;;;;;15.32;8.07;;;9.00;99.90;;;;;;5034135;28;20174;-66
2021/10/13 07:15:10;;;;;;;12.95;7.50;;;9.60;99.90;;;;;;5034740;28;20520;-66
2021/10/13 07:17:37;;;;;;;9.45;7.43;;;10.20;99.90;;;;;;5036260;28;20186;-67
2021/10/13 07:20:05;;;;;;;7.40;5.10;;;10.50;99.90;;;;;;5036334;28;20624;-67
2021/10/13 07:22:32;;;;;;;6.87;5.53;;;10.60;99.90;;;;;;5036404;28;20432;-67
2021/10/13 07:24:59;;;;;;;7.83;5.37;;;10.80;99.90;;;;;;5036562;28;20388;-66
2021/10/13 07:27:26;;;;;;;5.67;4.63;;;10.90;99.90;;;;;;5035945;28;20468;-67
2021/10/13 07:29:59;;;;;;;5.53;5.03;;;11.10;99.90;;;;;;5036276;28;20386;-66
2021/10/13 07:32:26;;;;;;;6.40;4.30;;;11.20;99.90;;;;;;5036486;28;20421;-67
2021/10/13 07:34:52;;;;;;;3.77;3.33;;;11.30;99.90;;;;;;5036384;28;20415;-66
2021/10/13 07:37:18;;;;;;;5.70;3.73;;;11.30;99.90;;;;;;5034551;28;20397;-67
2021/10/13 07:39:45;;;;;;;5.67;3.70;;;11.30;99.90;;;;;;5035970;28;20194;-67
2021/10/13 07:42:11;;;;;;;6.23;3.27;;;11.20;99.90;;;;;;5036323;28;20407;-66
2021/10/13 07:44:38;;;;;;;7.20;3.73;;;11.20;99.90;;;;;;5036146;28;20803;-67
2021/10/13 07:47:04;;;;;;;5.00;3.83;;;11.70;99.90;;;;;;5035634;28;20538;-67
2021/10/13 07:49:30;;;;;;;4.63;3.50;;;12.40;99.90;;;;;;5035583;28;20488;-69
2021/10/13 07:51:55;;;;;;;3.57;3.27;;;13.10;99.90;;;;;;5035651;28;20509;-68
2021/10/13 07:54:21;;;;;;;4.07;3.10;;;13.70;99.90;;;;;;5017855;28;20184;-67
2021/10/13 07:56:48;;;;;;;3.10;2.80;;;14.50;99.90;;;;;;5035450;28;20186;-68
2021/10/13 07:59:14;;;;;;;5.20;3.00;;;15.20;99.90;;;;;;5035622;28;20221;-69
2021/10/13 08:01:40;;;;;;;4.20;2.87;;;15.40;99.90;;;;;;5035678;28;20772;-66
2021/10/13 08:04:06;;;;;;;4.00;3.60;;;15.10;99.90;;;;;;5035763;28;20401;-66
2021/10/13 08:06:32;;;;;;;3.97;2.93;;;14.60;99.90;;;;;;5033959;28;20396;-66
2021/10/13 08:08:58;;;;;;;7.23;4.43;;;14.20;99.90;;;;;;5035145;28;20400;-67
2021/10/13 08:11:23;;;;;;;3.63;3.33;;;13.90;99.90;;;;;;5035056;28;20188;-67
2021/10/13 08:13:49;;;;;;;4.20;3.10;;;13.50;99.90;;;;;;5035394;28;20216;-66
2021/10/13 08:16:15;;;;;;;4.43;3.80;;;13.10;99.90;;;;;;5035227;28;20635;-66
2021/10/13 08:18:41;;;;;;;5.27;3.70;;;12.90;99.90;;;;;;5035037;28;20411;-67
2021/10/13 08:21:07;;;;;;;3.67;3.33;;;13.00;99.90;;;;;;5035519;28;20412;-66
2021/10/13 08:23:32;;;;;;;4.27;3.87;;;13.00;99.90;;;;;;5035292;28;20257;-66
2021/10/13 08:26:00;;;;;;;6.77;4.77;;;12.90;99.90;;;;;;5034303;28;20192;-67
2021/10/13 08:28:29;;;;;;;4.73;3.80;;;12.80;99.90;;;;;;5034468;28;20212;-66
2021/10/13 08:30:56;;;;;;;4.33;3.80;;;13.10;99.90;;;;;;5035124;28;20383;-67
2021/10/13 08:33:22;;;;;;;4.60;3.87;;;13.40;99.90;;;;;;5035084;28;20417;-66
2021/10/13 08:35:48;;;;;;;5.30;4.30;;;13.50;99.90;;;;;;5034995;28;20756;-67
2021/10/13 08:38:14;;;;;;;5.00;3.90;;;13.60;99.90;;;;;;5034344;28;20450;-67
2021/10/13 08:40:41;;;;;;;5.10;4.60;;;13.50;99.90;;;;;;5034880;28;20213;-67
2021/10/13 08:43:07;;;;;;;5.20;4.60;;;13.50;99.90;;;;;;5034493;28;20491;-67
2021/10/13 08:45:34;;;;;;;4.70;4.20;;;13.20;99.90;;;;;;5034510;28;20379;-68
2021/10/13 08:48:02;;;;;;;5.77;4.23;;;13.10;99.90;;;;;;5034388;28;20496;-68
2021/10/13 08:50:30;;;;;;;7.50;4.33;;;13.00;99.90;;;;;;5034512;28;20453;-66
2021/10/13 08:53:13;;;;;;;7.03;4.77;;;12.90;99.90;;;;;;5034594;28;20431;-66
2021/10/13 08:55:41;;;;;;;6.70;4.53;;;12.90;99.90;;;;;;5034155;28;20429;-68
2021/10/13 08:58:15;;;;;;;6.53;5.20;;;12.80;99.90;;;;;;5034366;28;20812;-68
2021/10/13 09:00:44;;;;;;;5.30;4.40;;;12.70;99.90;;;;;;5034379;28;20433;-66
2021/10/13 09:03:26;;;;;;;6.80;4.57;;;12.50;99.90;;;;;;5034377;28;20380;-66
2021/10/13 09:05:52;;;;;;;7.10;4.10;;;12.50;99.90;;;;;;5034419;28;20419;-66
2021/10/13 09:08:18;;;;;;;5.53;4.00;;;12.50;99.90;;;;;;5034110;28;20441;-66
2021/10/13 09:10:43;;;;;;;5.17;4.53;;;12.50;99.90;;;;;;5034551;28;20180;-66
2021/10/13 09:13:15;;;;;;;7.87;5.07;;;12.40;99.90;;;;;;5034143;28;20190;-66
2021/10/13 09:15:49;;;;;;;6.33;3.90;;;12.40;99.90;;;;;;5034050;28;20179;-67
2021/10/13 09:18:15;;;;;;;7.67;5.33;;;12.40;99.90;;;;;;5033829;28;20402;-67
2021/10/13 09:20:42;;;;;;;5.33;4.37;;;12.40;99.90;;;;;;5034120;28;20507;-67
2021/10/13 09:23:09;;;;;;;6.47;3.70;;;12.40;99.90;;;;;;5034329;28;20166;-67
2021/10/13 09:25:37;;;;;;;5.37;4.37;;;12.40;99.90;;;;;;5033877;28;20431;-66
2021/10/13 09:28:04;;;;;;;6.87;4.90;;;12.40;99.90;;;;;;5033671;28;20929;-65
2021/10/13 09:30:41;;;;;;;7.90;5.00;;;12.30;99.90;;;;;;5034141;28;20427;-68
2021/10/13 09:33:10;;;;;;;9.17;6.37;;;12.30;99.90;;;;;;5034058;28;20387;-68
2021/10/13 09:35:43;;;;;;;7.20;5.67;;;12.40;99.90;;;;;;5034146;28;20435;-68
2021/10/13 09:38:12;;;;;;;5.23;4.13;;;12.70;99.90;;;;;;5033413;28;20422;-66
2021/10/13 09:40:38;;;;;;;5.60;4.73;;;13.30;99.90;;;;;;5034096;28;20529;-68
2021/10/13 09:43:04;;;;;;;6.37;4.47;;;13.90;99.90;;;;;;5033785;28;20775;-68
2021/10/13 09:45:32;;;;;;;5.70;4.17;;;14.40;99.90;;;;;;5033878;28;20180;-66
2021/10/13 09:48:04;;;;;;;4.80;3.97;;;14.70;99.90;;;;;;5033363;28;20212;-68
2021/10/13 09:50:42;;;;;;;5.03;3.73;;;14.90;99.90;;;;;;5033619;28;20476;-68
2021/10/13 09:53:19;;;;;;;13.53;4.63;;;15.10;99.90;;;;;;5033411;28;20786;-67
2021/10/13 09:55:45;;;;;;;4.63;3.70;;;15.20;99.90;;;;;;5033283;28;20457;-67
2021/10/13 09:58:31;;;;;;;4.63;3.70;;;15.10;99.90;;;;;;5032870;28;20527;-67
2021/10/13 10:01:10;;;;;;;4.70;3.03;;;15.20;99.90;;;;;;5033586;28;20383;-67
2021/10/13 10:03:38;;;;;;;3.53;2.93;;;15.20;99.90;;;;;;5033654;28;20426;-68
2021/10/13 10:06:06;;;;;;;8.23;2.80;;;15.60;99.90;;;;;;5033232;28;20416;-66
2021/10/13 10:08:53;;;;;;;5.50;3.20;;;15.90;99.90;;;;;;5031511;28;20443;-67
2021/10/13 10:11:32;;;;;;;4.87;3.30;;;15.80;99.90;;;;;;5033510;28;20444;-67
2021/10/13 10:13:59;;;;;;;3.00;2.80;;;15.90;99.90;;;;;;5033405;28;20420;-67
2021/10/13 10:16:34;;;;;;;4.50;3.53;;;16.00;99.90;;;;;;5033409;28;20382;-66
2021/10/13 10:19:19;;;;;;;2.93;2.73;;;16.20;99.90;;;;;;5033176;28;20521;-65
2021/10/13 10:22:10;;;;;;;3.70;3.30;;;16.10;99.90;;;;;;5033374;28;20417;-65
2021/10/13 10:24:38;;;;;;;4.57;3.70;;;15.80;99.90;;;;;;5033336;28;20746;-66
2021/10/13 10:27:25;;;;;;;3.77;2.60;;;15.50;99.90;;;;;;5031349;28;20426;-67
2021/10/13 10:30:01;;;;;;;3.40;3.10;;;14.90;99.90;;;;;;5033304;28;20477;-66
2021/10/13 10:32:26;;;;;;;4.83;3.30;;;14.50;99.90;;;;;;5031945;28;20381;-66
2021/10/13 10:35:04;;;;;;;4.70;3.90;;;14.20;99.90;;;;;;5031864;28;20380;-67
2021/10/13 10:37:42;;;;;;;7.90;5.27;;;13.80;99.90;;;;;;5032725;28;20186;-67
2021/10/13 10:40:10;;;;;;;5.70;4.57;;;13.60;99.90;;;;;;5033001;28;20384;-66
2021/10/13 10:43:17;;;;;;;8.43;4.50;;;13.40;99.90;;;;;;5032666;28;20376;-66
2021/10/13 10:45:55;;;;;;;4.83;4.17;;;13.30;99.90;;;;;;5032716;28;20438;-67
2021/10/13 10:48:23;;;;;;;7.00;4.50;;;13.30;99.90;;;;;;5031179;28;20468;-66
2021/10/13 10:50:51;;;;;;;6.57;3.77;;;13.30;99.90;;;;;;5035079;28;20470;-67
2021/10/13 10:53:33;;;;;;;8.20;3.57;;;13.40;99.90;;;;;;5035649;28;20413;-65
2021/10/13 10:56:18;;;;;;;4.93;4.10;;;13.40;99.90;;;;;;5036546;28;20411;-67
2021/10/13 10:59:08;;;;;;;3.60;3.30;;;13.70;99.90;;;;;;5036652;28;20516;-66
2021/10/13 11:01:35;;;;;;;5.97;3.37;;;14.00;99.90;;;;;;5033697;28;20420;-66
2021/10/13 11:04:11;;;;;;;5.07;4.57;;;14.10;99.90;;;;;;5036906;28;20452;-67
2021/10/13 11:06:40;;;;;;;13.13;4.47;;;14.30;99.90;;;;;;5036582;28;20394;-67
2021/10/13 11:09:08;;;;;;;3.87;3.50;;;14.40;99.90;;;;;;5036598;28;20404;-67
2021/10/13 11:11:47;;;;;;;3.40;3.07;;;14.30;99.90;;;;;;5036397;28;20401;-67
2021/10/13 11:14:25;;;;;;;3.63;3.00;;;14.40;99.90;;;;;;5036557;28;20383;-66
2021/10/13 11:16:57;;;;;;;3.80;3.50;;;14.60;99.90;;;;;;5036486;28;20454;-66
2021/10/13 11:19:31;;;;;;;5.93;4.20;;;14.70;99.90;;;;;;5036352;28;20845;-64
2021/10/13 11:22:03;;;;;;;4.20;3.80;;;14.80;99.90;;;;;;5036433;28;20402;-63
2021/10/13 11:24:30;;;;;;;5.30;3.33;;;14.80;99.90;;;;;;5034959;28;20434;-61
2021/10/13 11:26:56;;;;;;;4.53;4.13;;;14.60;99.90;;;;;;5035999;28;20465;-62
2021/10/13 11:29:24;;;;;;;3.53;3.03;;;14.50;99.90;;;;;;5036116;28;20492;-64
2021/10/13 11:32:06;;;;;;;4.97;3.40;;;14.60;99.90;;;;;;5036152;28;20249;-63
2021/10/13 11:34:32;;;;;;;3.60;3.30;;;14.50;99.90;;;;;;5035911;28;20422;-63
2021/10/13 11:36:57;;;;;;;6.30;4.00;;;14.50;99.90;;;;;;5035809;28;20388;-64
2021/10/13 11:39:26;;;;;;;3.87;3.50;;;14.50;99.90;;;;;;5035709;28;20549;-68
2021/10/13 11:41:54;;;;;;;3.50;3.20;;;14.30;99.90;;;;;;5036005;28;20768;-67
2021/10/13 11:44:23;;;;;;;5.00;3.57;;;14.30;99.90;;;;;;5035972;28;20383;-68
2021/10/13 11:47:00;;;;;;;2.27;2.10;;;14.30;99.90;;;;;;5035444;28;20416;-66
2021/10/13 11:49:27;;;;;;;4.93;2.90;;;14.30;99.90;;;;;;5035974;28;20496;-65
2021/10/13 11:52:13;;;;;;;3.37;2.87;;;14.30;99.90;;;;;;5036430;28;20475;-65
2021/10/13 11:54:41;;;;;;;2.10;1.90;;;14.10;99.90;;;;;;5035694;28;20405;-65
2021/10/13 11:57:07;;;;;;;2.50;2.30;;;14.00;99.90;;;;;;5034184;28;20414;-68
2021/10/13 11:59:34;;;;;;;3.30;2.73;;;13.90;99.90;;;;;;5035749;28;20397;-67
2021/10/13 12:02:18;;;;;;;3.50;2.07;;;13.70;99.90;;;;;;5034578;28;20395;-69
2021/10/13 12:04:49;;;;;;;3.67;3.37;;;13.60;99.90;;;;;;5035663;28;20383;-69
2021/10/13 12:07:19;;;;;;;4.40;4.00;;;13.40;99.90;;;;;;5035138;28;20480;-69
2021/10/13 12:09:47;;;;;;;2.80;2.30;;;13.20;99.90;;;;;;5035654;28;20380;-69
2021/10/13 12:12:13;;;;;;;3.00;2.80;;;13.10;99.90;;;;;;5035155;28;20438;-68
2021/10/13 12:14:39;;;;;;;4.20;2.40;;;13.00;99.90;;;;;;5035088;28;20862;-68
2021/10/13 12:17:20;;;;;;;4.07;3.03;;;12.90;99.90;;;;;;5034406;28;20443;-71
2021/10/13 12:19:46;;;;;;;2.10;1.90;;;13.00;99.90;;;;;;5035179;28;20181;-70
2021/10/13 12:22:12;;;;;;;4.30;1.50;;;13.00;99.90;;;;;;5035144;28;20398;-71
2021/10/13 12:24:37;;;;;;;1.70;1.60;;;13.20;99.90;;;;;;5035105;28;20231;-71
2021/10/13 12:27:03;;;;;;;2.37;1.83;;;13.40;99.90;;;;;;5034666;28;20667;-73
2021/10/13 12:29:43;;;;;;;3.40;3.03;;;13.60;99.90;;;;;;5035064;28;20657;-70
2021/10/13 12:32:20;;;;;;;2.17;1.77;;;13.60;99.90;;;;;;5035121;28;20238;-70
2021/10/13 12:34:46;;;;;;;0.90;0.90;;;13.50;99.90;;;;;;5033557;28;20894;-70
2021/10/13 12:37:12;;;;;;;1.90;1.73;;;13.40;99.90;;;;;;5034633;28;20386;-70
2021/10/13 12:39:38;;;;;;;1.13;1.00;;;13.20;99.90;;;;;;5034968;28;20960;-71
2021/10/13 12:42:08;;;;;;;2.80;0.80;;;13.00;99.90;;;;;;5035004;28;20180;-70
2021/10/13 12:44:35;;;;;;;1.33;1.23;;;12.90;99.90;;;;;;5033204;28;20336;-68
2021/10/13 12:47:04;;;;;;;1.57;1.00;;;12.80;99.90;;;;;;5033723;28;20406;-70
2021/10/13 12:49:50;;;;;;;0.80;0.80;;;12.80;99.90;;;;;;5034407;28;20382;-70
2021/10/13 12:52:22;;;;;;;2.73;1.50;;;12.60;99.90;;;;;;5034624;28;20819;-69
2021/10/13 12:54:55;;;;;;;2.70;2.50;;;12.60;99.90;;;;;;5034444;28;20439;-68
2021/10/13 12:57:27;;;;;;;2.17;1.90;;;12.50;99.90;;;;;;5031048;28;20450;-69
2021/10/13 12:59:53;;;;;;;2.13;1.93;;;12.40;99.90;;;;;;5012835;28;20390;-67
2021/10/13 13:02:19;;;;;;;1.70;1.60;;;12.40;99.90;;;;;;5012395;28;20502;-68